Time;durP1;ratioP1;P1;durP2;ratioP2;P2;SDS_P1;SDS_P2;PMS_P1;PMS_P2;Temp;Humidity;BMP_temperature;BMP_pressure;BME280_temperature;BME280_humidity;BME280_pressure;Samples;Min_cycle;Max_cycle;Signal;HPM_P1;HPM_P2
2022/02/08 00:00:17;;;;;;;20.70;19.80;;;19.10;49.80;;;;;;5091421;28;20546;-45
2022/02/08 00:02:49;;;;;;;20.53;19.73;;;19.10;49.90;;;;;;5091789;28;20451;-49
2022/02/08 00:05:17;;;;;;;21.33;20.43;;;19.00;49.90;;;;;;5092296;28;20474;-47
2022/02/08 00:07:49;;;;;;;20.80;19.80;;;19.00;50.10;;;;;;5091976;28;20541;-45
2022/02/08 00:10:16;;;;;;;21.27;20.37;;;18.90;50.10;;;;;;5091712;28;20450;-48
2022/02/08 00:12:43;;;;;;;20.97;20.07;;;18.90;50.20;;;;;;5091922;28;20937;-47
2022/02/08 00:15:10;;;;;;;20.80;19.90;;;18.90;50.20;;;;;;5091698;28;20489;-47
2022/02/08 00:17:37;;;;;;;20.50;19.60;;;18.80;50.30;;;;;;5091706;28;20826;-46
2022/02/08 00:20:07;;;;;;;22.50;21.40;;;18.80;50.30;;;;;;5091365;28;20435;-47
2022/02/08 00:22:34;;;;;;;21.37;20.37;;;18.70;50.30;;;;;;5091782;28;20492;-47
2022/02/08 00:25:03;;;;;;;20.90;20.00;;;18.70;50.40;;;;;;5091719;28;20481;-45
2022/02/08 00:27:30;;;;;;;20.93;20.03;;;18.70;50.60;;;;;;5090548;28;20450;-46
2022/02/08 00:29:56;;;;;;;21.17;20.00;;;18.60;50.50;;;;;;5091841;28;20458;-47
2022/02/08 00:32:23;;;;;;;21.40;20.50;;;18.60;50.70;;;;;;5091714;28;20470;-47
2022/02/08 00:34:50;;;;;;;21.63;20.63;;;18.50;50.80;;;;;;5091742;28;20462;-46
2022/02/08 00:37:17;;;;;;;20.97;20.07;;;18.40;51.10;;;;;;5091267;28;20458;-48
2022/02/08 00:39:44;;;;;;;21.63;20.57;;;18.30;51.30;;;;;;5091629;28;20450;-46
2022/02/08 00:42:13;;;;;;;21.57;20.57;;;18.30;51.20;;;;;;5091592;28;20447;-45
2022/02/08 00:44:45;;;;;;;21.77;20.70;;;18.30;51.80;;;;;;5091338;28;20466;-46
2022/02/08 00:47:19;;;;;;;20.50;19.60;;;18.30;51.40;;;;;;5091359;28;20525;-47
2022/02/08 00:49:47;;;;;;;21.30;20.30;;;18.30;51.30;;;;;;5091612;28;20453;-45
2022/02/08 00:52:15;;;;;;;21.43;20.53;;;18.30;51.50;;;;;;5091452;28;20583;-45
2022/02/08 00:54:43;;;;;;;21.33;20.43;;;18.20;51.60;;;;;;5091168;28;20498;-45
2022/02/08 00:57:10;;;;;;;21.20;20.30;;;18.10;51.90;;;;;;5091283;28;20870;-49
2022/02/08 00:59:38;;;;;;;20.20;19.40;;;18.10;52.30;;;;;;5091425;28;20442;-45
2022/02/08 01:02:06;;;;;;;21.50;20.40;;;18.00;52.50;;;;;;5091465;28;20928;-45
2022/02/08 01:04:34;;;;;;;21.37;20.47;;;18.00;52.60;;;;;;5090941;28;20816;-46
2022/02/08 01:07:01;;;;;;;21.33;20.40;;;18.00;52.70;;;;;;5091217;28;20441;-46
2022/02/08 01:09:39;;;;;;;21.80;20.70;;;17.90;52.80;;;;;;5091466;28;20449;-45
2022/02/08 01:12:07;;;;;;;21.43;20.53;;;17.90;52.80;;;;;;5091349;28;21001;-46
2022/02/08 01:14:38;;;;;;;21.30;20.30;;;17.90;52.80;;;;;;5090878;28;21018;-49
2022/02/08 01:17:07;;;;;;;20.77;19.87;;;17.80;52.90;;;;;;5091093;28;20593;-46
2022/02/08 01:19:36;;;;;;;21.73;20.73;;;17.80;53.10;;;;;;5091245;28;20902;-47
2022/02/08 01:22:03;;;;;;;21.20;20.30;;;17.70;53.20;;;;;;5091328;28;20812;-46
2022/02/08 01:24:29;;;;;;;21.00;20.10;;;17.70;53.30;;;;;;5090762;28;20466;-46
2022/02/08 01:27:02;;;;;;;22.53;21.20;;;17.60;53.50;;;;;;5090966;28;20439;-49
2022/02/08 01:29:38;;;;;;;21.37;20.37;;;17.60;53.90;;;;;;5091348;28;20446;-48
2022/02/08 01:32:21;;;;;;;20.57;19.77;;;17.70;54.10;;;;;;5091176;28;20931;-45
2022/02/08 01:35:01;;;;;;;21.47;20.50;;;17.70;54.10;;;;;;5090881;28;20979;-46
2022/02/08 01:37:41;;;;;;;21.33;20.43;;;17.70;54.20;;;;;;5091903;28;20569;-46
2022/02/08 01:40:18;;;;;;;21.47;20.37;;;17.60;54.40;;;;;;5094890;28;20446;-45
2022/02/08 01:42:59;;;;;;;21.10;20.20;;;17.70;54.60;;;;;;5094546;28;20454;-49
2022/02/08 01:45:42;;;;;;;21.47;20.47;;;17.70;54.60;;;;;;5094474;28;20466;-46
2022/02/08 01:48:14;;;;;;;21.43;20.53;;;17.60;54.70;;;;;;5094630;28;20495;-46
2022/02/08 01:50:42;;;;;;;21.40;20.40;;;17.60;54.80;;;;;;5094727;28;20434;-47
2022/02/08 01:53:09;;;;;;;21.60;20.60;;;17.60;54.80;;;;;;5094276;28;20443;-45
2022/02/08 01:55:39;;;;;;;21.57;20.57;;;17.50;54.80;;;;;;5094143;28;20482;-45
2022/02/08 01:58:06;;;;;;;21.73;20.73;;;17.50;54.90;;;;;;5094406;28;20870;-48
2022/02/08 02:00:33;;;;;;;20.93;20.03;;;17.50;55.10;;;;;;5094357;28;20478;-49
2022/02/08 02:03:01;;;;;;;20.73;19.83;;;17.50;55.30;;;;;;5094137;28;20529;-46
2022/02/08 02:05:30;;;;;;;21.00;20.00;;;17.40;55.30;;;;;;5094075;28;20497;-46
2022/02/08 02:07:58;;;;;;;20.60;19.70;;;17.50;55.50;;;;;;5094186;28;20469;-46
2022/02/08 02:10:26;;;;;;;21.43;20.37;;;17.50;55.70;;;;;;5094182;28;20446;-47
2022/02/08 02:12:55;;;;;;;21.30;20.40;;;17.50;55.70;;;;;;5093845;28;20445;-46
2022/02/08 02:15:23;;;;;;;21.17;20.17;;;17.50;55.80;;;;;;5093907;28;20467;-46
2022/02/08 02:17:50;;;;;;;21.20;20.30;;;17.40;56.00;;;;;;5094119;28;20617;-48
2022/02/08 02:20:17;;;;;;;21.63;20.73;;;17.40;55.90;;;;;;5094129;28;20447;-45
2022/02/08 02:22:46;;;;;;;21.10;20.20;;;17.40;55.90;;;;;;5094016;28;20450;-46
2022/02/08 02:25:26;;;;;;;21.60;20.60;;;17.30;55.90;;;;;;5093635;28;20475;-48
2022/02/08 02:27:55;;;;;;;20.63;19.73;;;17.30;56.10;;;;;;5093786;28;20442;-46
2022/02/08 02:30:22;;;;;;;21.30;20.40;;;17.30;56.10;;;;;;5093833;28;20450;-47
2022/02/08 02:32:49;;;;;;;21.33;20.33;;;17.30;56.20;;;;;;5093622;28;20445;-45
2022/02/08 02:35:16;;;;;;;20.90;19.87;;;17.30;56.40;;;;;;5073331;28;20461;-51
2022/02/08 02:37:43;;;;;;;21.50;20.60;;;17.30;56.40;;;;;;5073407;28;20475;-45
2022/02/08 02:40:11;;;;;;;21.30;20.23;;;17.30;56.40;;;;;;5073502;28;20439;-49
2022/02/08 02:42:39;;;;;;;21.47;20.57;;;17.30;56.50;;;;;;5073333;28;20488;-45
2022/02/08 02:45:09;;;;;;;21.37;20.47;;;17.30;56.50;;;;;;5092231;28;20473;-46
2022/02/08 02:47:37;;;;;;;21.37;20.43;;;17.30;56.80;;;;;;5093104;28;20438;-45
2022/02/08 02:50:05;;;;;;;21.33;20.43;;;17.20;56.70;;;;;;5092808;28;20442;-46
2022/02/08 02:52:32;;;;;;;21.93;20.83;;;17.30;56.80;;;;;;5093382;28;20450;-45
2022/02/08 02:54:59;;;;;;;21.20;20.30;;;17.30;56.80;;;;;;5093080;28;20459;-48
2022/02/08 02:57:27;;;;;;;20.83;19.93;;;17.30;56.80;;;;;;5092587;28;20478;-45
2022/02/08 03:00:04;;;;;;;21.20;20.23;;;17.20;57.00;;;;;;5093179;28;20571;-47
2022/02/08 03:02:39;;;;;;;21.53;20.43;;;17.20;57.00;;;;;;5093083;28;20442;-45
2022/02/08 03:05:15;;;;;;;20.83;19.83;;;17.20;57.00;;;;;;5092705;28;20470;-45
2022/02/08 03:18:41;;;;;;;21.83;20.73;;;17.10;57.60;;;;;;5092973;28;20512;-45
2022/02/08 03:21:09;;;;;;;21.03;20.10;;;17.20;57.70;;;;;;5092528;28;20536;-48
2022/02/08 03:23:37;;;;;;;20.80;20.00;;;17.20;57.80;;;;;;5092746;28;20449;-45
2022/02/08 03:26:04;;;;;;;21.60;20.70;;;17.10;57.70;;;;;;5092579;28;20963;-47
2022/02/08 03:28:31;;;;;;;21.20;20.20;;;17.10;57.90;;;;;;5092651;28;20443;-45
2022/02/08 03:30:59;;;;;;;21.07;20.17;;;17.10;57.90;;;;;;5092294;28;20447;-49
2022/02/08 03:33:27;;;;;;;21.03;20.13;;;17.10;57.90;;;;;;5092633;28;20454;-46
2022/02/08 03:35:54;;;;;;;21.07;20.17;;;17.10;57.90;;;;;;5092188;28;20471;-47
2022/02/08 03:38:28;;;;;;;20.87;19.97;;;17.10;57.90;;;;;;5092298;28;20443;-46
2022/02/08 03:40:55;;;;;;;21.37;20.47;;;17.10;58.00;;;;;;5092629;28;20450;-48
2022/02/08 03:43:31;;;;;;;21.17;20.27;;;17.00;58.00;;;;;;5092439;28;20488;-50
2022/02/08 03:46:03;;;;;;;20.23;19.43;;;17.00;58.10;;;;;;5092142;28;20461;-45
2022/02/08 03:48:32;;;;;;;21.13;20.23;;;17.00;58.20;;;;;;5092211;28;20447;-46
2022/02/08 03:51:08;;;;;;;21.40;20.40;;;17.10;58.30;;;;;;5092378;28;20885;-46
2022/02/08 03:53:36;;;;;;;21.50;20.60;;;17.10;58.20;;;;;;5092242;28;20531;-47
2022/02/08 03:56:03;;;;;;;21.47;20.57;;;17.10;58.30;;;;;;5091922;28;20458;-49
2022/02/08 03:58:30;;;;;;;21.20;20.30;;;17.00;58.30;;;;;;5091904;28;20484;-48
2022/02/08 04:01:24;;;;;;;20.70;19.70;;;16.90;58.70;;;;;;5092025;28;20447;-47
2022/02/08 04:04:09;;;;;;;21.27;20.30;;;16.90;59.10;;;;;;5091988;28;20447;-48
2022/02/08 04:06:35;;;;;;;21.43;20.43;;;16.90;59.30;;;;;;5091894;28;20510;-46
2022/02/08 04:09:04;;;;;;;21.00;20.00;;;16.80;59.40;;;;;;5091753;28;20443;-45
2022/02/08 04:11:36;;;;;;;20.83;19.93;;;16.80;59.70;;;;;;5092032;28;20826;-46
2022/02/08 04:14:19;;;;;;;20.60;19.70;;;16.90;59.80;;;;;;5092072;28;20442;-47
2022/02/08 04:16:47;;;;;;;20.30;19.50;;;16.90;59.90;;;;;;5091720;28;20979;-45
2022/02/08 04:19:20;;;;;;;20.50;19.70;;;16.80;59.90;;;;;;5091693;28;20518;-45
2022/02/08 04:33:02;;;;;;;21.00;20.10;;;16.90;60.30;;;;;;5091900;28;20991;-49
2022/02/08 04:35:43;;;;;;;20.43;19.50;;;17.00;60.50;;;;;;5091607;28;20871;-46
2022/02/08 04:38:22;;;;;;;21.33;20.43;;;16.80;60.50;;;;;;5091400;28;20477;-48
2022/02/08 04:40:55;;;;;;;20.50;19.60;;;16.80;60.90;;;;;;5091722;28;20499;-46
2022/02/08 04:43:39;;;;;;;21.07;20.07;;;16.80;61.10;;;;;;5091488;28;20504;-45
2022/02/08 04:46:13;;;;;;;20.57;19.77;;;16.80;61.10;;;;;;5091435;28;20554;-47
2022/02/08 04:48:50;;;;;;;20.97;20.03;;;16.80;61.60;;;;;;5091445;28;20454;-46
2022/02/08 04:51:26;;;;;;;20.63;19.73;;;16.70;61.50;;;;;;5091566;28;20867;-46
2022/02/08 04:54:07;;;;;;;20.90;19.90;;;16.80;61.60;;;;;;5091587;28;20446;-47
2022/02/08 04:59:26;;;;;;;19.93;19.13;;;16.90;61.60;;;;;;5089284;28;20808;-48
2022/02/08 05:02:13;;;;;;;21.67;20.77;;;16.90;61.30;;;;;;5091461;28;20445;-46
2022/02/08 05:27:10;;;;;;;20.87;19.97;;;16.90;70.80;;;;;;5094959;28;20434;-46
2022/02/08 05:43:38;;;;;;;26.40;24.27;;;17.20;99.90;;;;;;5094768;28;20616;-44
2022/02/08 05:46:43;;;;;;;23.00;21.50;;;17.10;99.90;;;;;;5094152;28;20462;-44
2022/02/08 05:49:07;;;;;;;23.57;21.53;;;17.20;99.90;;;;;;5094572;28;20519;-44
2022/02/08 05:51:57;;;;;;;22.70;21.17;;;17.30;99.90;;;;;;5094535;28;20516;-45
2022/02/08 05:54:25;;;;;;;24.77;22.73;;;17.80;99.90;;;;;;5094476;28;20447;-48
2022/02/08 05:56:54;;;;;;;23.10;21.70;;;18.00;99.90;;;;;;5093082;28;20478;-46
2022/02/08 05:59:21;;;;;;;22.40;21.00;;;18.20;99.90;;;;;;5094046;28;20476;-45
2022/02/08 06:01:48;;;;;;;23.77;22.23;;;18.60;99.90;;;;;;5094411;28;20443;-45
2022/02/08 06:04:15;;;;;;;23.60;22.10;;;19.00;99.90;;;;;;5094267;28;20447;-46
2022/02/08 06:06:42;;;;;;;23.77;22.27;;;19.20;99.90;;;;;;5094537;28;20457;-48
2022/02/08 06:09:09;;;;;;;22.83;21.63;;;19.60;97.80;;;;;;5094112;28;20443;-48
2022/02/08 06:11:37;;;;;;;22.43;21.23;;;19.70;96.20;;;;;;5094139;28;20987;-47
2022/02/08 06:14:04;;;;;;;24.07;22.67;;;19.90;94.50;;;;;;5094095;28;20474;-50
2022/02/08 06:16:31;;;;;;;23.30;22.00;;;20.10;92.60;;;;;;5093710;28;20450;-48
2022/02/08 06:18:58;;;;;;;23.90;22.30;;;20.10;90.70;;;;;;5093922;28;20450;-49
2022/02/08 06:21:25;;;;;;;24.47;22.83;;;20.30;89.30;;;;;;5094001;28;20447;-48
2022/02/08 06:23:52;;;;;;;24.60;23.00;;;20.20;87.20;;;;;;5092740;28;20450;-48
2022/02/08 06:26:21;;;;;;;25.13;23.57;;;20.30;85.00;;;;;;5093591;28;20493;-49
2022/02/08 06:29:00;;;;;;;22.77;21.20;;;20.30;83.00;;;;;;5093817;28;20449;-51
2022/02/08 06:31:27;;;;;;;22.93;21.50;;;20.40;81.10;;;;;;5093793;28;20517;-48
2022/02/08 06:33:53;;;;;;;23.60;21.60;;;20.30;79.50;;;;;;5093613;28;20465;-50
2022/02/08 06:36:20;;;;;;;23.37;21.70;;;20.30;78.30;;;;;;5093537;28;20462;-49
2022/02/08 06:38:47;;;;;;;22.17;21.07;;;20.40;77.00;;;;;;5093648;28;20489;-49
2022/02/08 06:41:14;;;;;;;23.63;22.30;;;20.40;75.50;;;;;;5093670;28;20823;-49
2022/02/08 06:43:40;;;;;;;22.70;21.60;;;20.50;74.00;;;;;;5093409;28;20823;-49
2022/02/08 06:46:08;;;;;;;23.23;22.13;;;20.40;72.90;;;;;;5092929;28;20458;-49
2022/02/08 06:48:35;;;;;;;24.43;23.23;;;20.40;72.10;;;;;;5093614;28;20795;-49
2022/02/08 06:51:02;;;;;;;22.77;21.57;;;20.50;70.60;;;;;;5093323;28;20468;-48
2022/02/08 06:53:29;;;;;;;22.63;21.73;;;20.50;70.00;;;;;;5093359;28;20788;-49
2022/02/08 06:55:56;;;;;;;27.33;26.10;;;20.50;69.00;;;;;;5092867;28;20477;-50
2022/02/08 06:58:30;;;;;;;27.13;25.73;;;20.50;68.30;;;;;;5093138;28;20572;-49
2022/02/08 07:01:02;;;;;;;29.77;28.47;;;20.50;67.90;;;;;;5093113;28;20950;-48
2022/02/08 07:03:31;;;;;;;33.23;31.83;;;20.40;67.30;;;;;;5093239;28;20492;-49
2022/02/08 07:05:57;;;;;;;32.90;30.93;;;20.30;66.80;;;;;;5092661;28;20531;-48
2022/02/08 07:08:25;;;;;;;34.10;32.50;;;20.30;66.30;;;;;;5093015;28;20942;-48
2022/02/08 07:10:51;;;;;;;34.53;32.87;;;20.30;65.90;;;;;;5092896;28;20519;-51
2022/02/08 07:13:18;;;;;;;32.80;31.23;;;20.30;65.40;;;;;;5092948;28;20449;-49
2022/02/08 07:15:45;;;;;;;31.77;30.37;;;20.30;65.10;;;;;;5092719;28;20463;-48
2022/02/08 07:18:12;;;;;;;31.00;29.43;;;20.30;64.70;;;;;;5092791;28;20486;-50
2022/02/08 07:20:40;;;;;;;31.93;30.53;;;20.30;64.20;;;;;;5092870;28;20442;-50
2022/02/08 07:23:07;;;;;;;29.43;28.20;;;20.20;63.70;;;;;;5092937;28;20457;-50
2022/02/08 07:25:34;;;;;;;31.90;30.60;;;20.20;63.40;;;;;;5092437;28;20469;-49
2022/02/08 07:28:01;;;;;;;31.60;30.00;;;20.10;63.20;;;;;;5092578;28;20439;-49
2022/02/08 07:30:29;;;;;;;30.50;29.20;;;20.20;63.00;;;;;;5092677;28;20442;-49
2022/02/08 07:32:56;;;;;;;31.67;30.17;;;20.20;62.60;;;;;;5092589;28;20446;-50
2022/02/08 07:35:29;;;;;;;30.67;29.13;;;20.10;62.20;;;;;;5092317;28;20828;-48
2022/02/08 07:38:04;;;;;;;29.00;27.70;;;20.10;62.10;;;;;;5092485;28;20489;-51
2022/02/08 07:41:35;;;;;;;29.57;28.17;;;20.10;61.90;;;;;;5092499;28;20457;-49
2022/02/08 07:43:28;;;;;;;30.83;29.43;;;20.00;61.50;;;;;;5092324;28;20943;-48
2022/02/08 07:45:56;;;;;;;27.40;26.20;;;20.00;61.10;;;;;;5092142;28;20466;-48
2022/02/08 07:48:23;;;;;;;27.77;26.57;;;20.00;61.10;;;;;;5092244;28;20451;-50
2022/02/08 07:50:51;;;;;;;31.03;29.63;;;20.00;60.90;;;;;;5092300;28;20812;-49
2022/02/08 07:53:22;;;;;;;28.63;27.43;;;19.90;60.60;;;;;;5092237;28;20504;-49
2022/02/08 07:55:49;;;;;;;33.07;31.50;;;19.90;60.40;;;;;;5092045;28;20466;-49
2022/02/08 07:58:16;;;;;;;29.00;27.73;;;19.90;60.20;;;;;;5092003;28;20475;-49
2022/02/08 08:00:43;;;;;;;27.80;26.50;;;19.90;60.10;;;;;;5092101;28;20489;-48
2022/02/08 08:03:10;;;;;;;27.00;25.80;;;19.90;59.90;;;;;;5092177;28;20473;-49
2022/02/08 08:05:37;;;;;;;29.30;28.10;;;19.90;59.80;;;;;;5091571;28;20477;-48
2022/02/08 08:08:04;;;;;;;30.97;29.67;;;19.80;59.60;;;;;;5091892;28;20924;-49
2022/02/08 08:10:32;;;;;;;28.20;26.90;;;19.80;59.50;;;;;;5092093;28;20449;-48
2022/02/08 08:13:01;;;;;;;31.33;29.93;;;19.80;59.40;;;;;;5091996;28;20449;-51
2022/02/08 08:15:37;;;;;;;30.23;28.73;;;19.80;59.30;;;;;;5091758;28;20471;-48
2022/02/08 08:18:18;;;;;;;25.87;24.77;;;19.80;59.20;;;;;;5091986;28;20517;-49
2022/02/08 08:20:45;;;;;;;25.10;24.10;;;19.80;59.10;;;;;;5091861;28;20442;-47
2022/02/08 08:23:12;;;;;;;27.37;26.17;;;19.70;59.00;;;;;;5091770;28;20451;-47
2022/02/08 08:25:40;;;;;;;29.90;28.60;;;19.70;59.00;;;;;;5091530;28;20831;-48
2022/02/08 08:28:07;;;;;;;31.97;30.47;;;19.60;58.90;;;;;;5091655;28;20438;-48
2022/02/08 08:30:34;;;;;;;32.10;30.63;;;19.60;59.00;;;;;;5091811;28;20529;-50
2022/02/08 08:33:02;;;;;;;32.10;30.80;;;19.60;59.00;;;;;;5091721;28;20442;-48
2022/02/08 08:35:29;;;;;;;29.80;28.50;;;19.70;59.00;;;;;;5091543;28;20467;-48
2022/02/08 08:38:03;;;;;;;30.70;29.30;;;19.80;59.00;;;;;;5091448;28;20482;-48
2022/02/08 08:40:42;;;;;;;29.83;28.53;;;19.90;58.70;;;;;;5091538;28;20538;-47
2022/02/08 08:43:36;;;;;;;32.77;31.37;;;19.90;58.30;;;;;;5091643;28;20442;-47
2022/02/08 08:49:27;;;;;;;35.43;33.93;;;20.10;57.60;;;;;;5032626;28;20417;-48
2022/02/08 08:51:56;;;;;;;35.47;34.07;;;20.20;57.40;;;;;;5092710;28;20450;-47
2022/02/08 08:54:24;;;;;;;36.80;35.23;;;20.20;57.10;;;;;;5095501;28;20438;-48
2022/02/08 08:56:51;;;;;;;35.50;34.00;;;20.30;56.90;;;;;;5095385;28;20454;-47
2022/02/08 08:59:21;;;;;;;32.40;30.90;;;20.30;56.60;;;;;;5095495;28;20482;-47
2022/02/08 09:01:49;;;;;;;29.10;27.90;;;20.30;56.40;;;;;;5095458;28;20442;-48
2022/02/08 09:04:18;;;;;;;33.17;31.77;;;20.30;56.20;;;;;;5095247;28;20442;-47
2022/02/08 09:06:46;;;;;;;32.80;31.50;;;20.30;56.10;;;;;;5095521;28;20868;-47
2022/02/08 09:09:16;;;;;;;34.27;32.70;;;20.30;56.10;;;;;;5095308;28;20533;-48
2022/02/08 09:12:00;;;;;;;32.63;31.10;;;20.30;56.00;;;;;;5095400;28;20446;-47
2022/02/08 09:14:43;;;;;;;34.37;32.87;;;20.30;55.80;;;;;;5095187;28;20481;-48
2022/02/08 09:17:49;;;;;;;30.70;29.27;;;20.30;55.70;;;;;;5095026;28;20442;-46
2022/02/08 09:25:56;;;;;;;32.40;31.00;;;20.30;55.50;;;;;;5081565;28;20450;-48
2022/02/08 09:28:38;;;;;;;35.47;33.97;;;20.30;55.40;;;;;;5094942;28;20442;-48
2022/02/08 09:31:10;;;;;;;36.37;34.77;;;20.30;55.20;;;;;;5094961;28;20442;-48
2022/02/08 09:33:36;;;;;;;36.87;35.37;;;20.30;55.20;;;;;;5095074;28;20442;-47
2022/02/08 09:36:03;;;;;;;33.10;31.60;;;20.30;55.20;;;;;;5094570;28;20457;-48
2022/02/08 09:38:31;;;;;;;34.67;33.20;;;20.30;55.10;;;;;;5094714;28;20482;-47
2022/02/08 09:40:59;;;;;;;28.33;27.10;;;20.30;54.90;;;;;;5094848;28;20450;-49
2022/02/08 09:43:27;;;;;;;28.00;26.80;;;20.20;54.90;;;;;;5094720;28;20844;-48
2022/02/08 09:45:54;;;;;;;26.53;25.43;;;20.20;54.80;;;;;;5094505;28;20466;-52
2022/02/08 09:48:29;;;;;;;27.60;26.20;;;20.20;54.70;;;;;;5094582;28;20800;-49
2022/02/08 09:50:56;;;;;;;29.43;28.13;;;20.20;54.80;;;;;;5094579;28;20448;-47
2022/02/08 09:53:30;;;;;;;28.30;27.10;;;20.20;54.70;;;;;;5094633;28;20446;-48
2022/02/08 09:55:57;;;;;;;27.70;26.50;;;20.10;54.70;;;;;;5094323;28;20806;-48
2022/02/08 09:58:24;;;;;;;29.00;27.80;;;20.10;54.70;;;;;;5094163;28;20478;-48
2022/02/08 10:01:02;;;;;;;33.10;31.47;;;20.10;54.60;;;;;;5094391;28;20445;-47
2022/02/08 10:03:30;;;;;;;31.03;29.73;;;20.10;54.70;;;;;;5094395;28;20959;-48
2022/02/08 10:05:57;;;;;;;30.83;29.53;;;20.00;54.60;;;;;;5094001;28;20844;-47
2022/02/08 10:08:24;;;;;;;32.33;30.93;;;20.00;54.60;;;;;;5094126;28;20542;-50
2022/02/08 10:10:51;;;;;;;31.33;30.03;;;20.00;54.70;;;;;;5094177;28;20446;-50
2022/02/08 10:13:33;;;;;;;29.80;28.53;;;19.90;54.70;;;;;;5094232;28;20447;-48
2022/02/08 10:19:07;;;;;;;30.93;29.63;;;19.90;54.70;;;;;;5094137;28;20556;-49
2022/02/08 10:21:44;;;;;;;28.60;27.40;;;19.90;54.60;;;;;;5094175;28;20861;-46
2022/02/08 10:24:12;;;;;;;29.80;28.60;;;19.90;54.60;;;;;;5093950;28;20584;-50
2022/02/08 10:26:43;;;;;;;32.37;30.80;;;19.90;54.60;;;;;;5093634;28;20500;-51
2022/02/08 10:29:17;;;;;;;32.93;31.63;;;19.90;54.70;;;;;;5094033;28;20535;-48
2022/02/08 10:40:04;;;;;;;31.40;30.10;;;20.10;54.70;;;;;;5093932;28;20474;-51
2022/02/08 10:42:31;;;;;;;28.20;27.00;;;20.20;54.30;;;;;;5093561;28;20438;-50
2022/02/08 10:44:58;;;;;;;29.37;28.07;;;20.30;54.10;;;;;;5093415;28;20853;-48
2022/02/08 10:47:35;;;;;;;32.03;30.73;;;20.40;53.90;;;;;;5093227;28;20453;-48
2022/02/08 10:50:05;;;;;;;34.27;32.97;;;20.40;53.70;;;;;;5093297;28;20438;-50
2022/02/08 10:52:33;;;;;;;34.00;32.60;;;20.50;53.60;;;;;;5092812;28;20462;-47
2022/02/08 10:55:08;;;;;;;29.30;28.00;;;20.50;53.60;;;;;;5093018;28;20466;-46
2022/02/08 10:57:47;;;;;;;29.10;27.60;;;20.50;54.00;;;;;;5092775;28;20454;-52
2022/02/08 11:00:20;;;;;;;28.30;27.07;;;20.60;54.20;;;;;;5093259;28;20430;-47
2022/02/08 11:02:49;;;;;;;40.87;37.50;;;20.60;54.20;;;;;;5093205;28;20457;-49
2022/02/08 11:05:24;;;;;;;51.00;46.10;;;20.60;54.50;;;;;;5092717;28;20478;-50
2022/02/08 11:08:19;;;;;;;64.07;57.53;;;20.60;54.90;;;;;;5092726;28;20431;-51
2022/02/08 11:14:01;;;;;;;77.50;69.83;;;20.70;55.70;;;;;;5093050;28;20537;-48
2022/02/08 11:16:33;;;;;;;76.73;68.60;;;20.70;55.30;;;;;;5092456;28;20599;-48
2022/02/08 11:19:09;;;;;;;79.17;68.17;;;20.70;55.50;;;;;;5092369;28;21010;-47
2022/02/08 11:21:52;;;;;;;79.33;70.83;;;20.70;55.60;;;;;;5092747;28;20446;-47
2022/02/08 11:24:25;;;;;;;77.40;69.00;;;20.70;56.00;;;;;;5092433;28;20858;-48
2022/02/08 11:26:57;;;;;;;87.03;74.77;;;20.70;56.40;;;;;;5091790;28;20450;-49
2022/02/08 11:29:32;;;;;;;85.30;69.97;;;20.70;56.70;;;;;;5092379;28;20448;-50
2022/02/08 11:32:02;;;;;;;82.27;73.50;;;20.60;56.70;;;;;;5092609;28;20499;-53
2022/02/08 11:43:35;;;;;;;75.83;66.77;;;20.50;56.90;;;;;;5068273;28;20998;-48
2022/02/08 11:46:12;;;;;;;72.17;61.67;;;20.50;57.00;;;;;;5078581;28;20466;-48
2022/02/08 11:51:45;;;;;;;75.60;67.43;;;20.50;57.10;;;;;;5092284;28;20430;-48
2022/02/08 11:57:50;;;;;;;78.43;70.70;;;20.50;57.20;;;;;;5075955;28;20868;-48
2022/02/08 12:00:21;;;;;;;69.47;62.17;;;20.40;57.10;;;;;;5091900;28;20523;-51
2022/02/08 12:03:01;;;;;;;69.20;59.07;;;20.40;57.00;;;;;;5092123;28;20537;-48
2022/02/08 12:05:38;;;;;;;66.63;59.27;;;20.40;56.90;;;;;;5092210;28;20940;-46
2022/02/08 12:08:13;;;;;;;65.57;58.83;;;20.30;56.80;;;;;;5091935;28;20537;-47
2022/02/08 12:10:46;;;;;;;64.33;57.40;;;20.20;56.70;;;;;;5092061;28;20441;-48
2022/02/08 12:13:31;;;;;;;65.80;59.27;;;20.30;56.70;;;;;;5092110;28;20446;-48
2022/02/08 12:33:05;;;;;;;59.67;54.07;;;20.20;56.80;;;;;;5091829;28;20464;-49
2022/02/08 12:35:43;;;;;;;59.70;54.53;;;20.20;56.30;;;;;;5091469;28;20538;-49
2022/02/08 12:50:26;;;;;;;54.33;48.97;;;20.60;55.20;;;;;;5079287;28;20448;-48
2022/02/08 12:55:54;;;;;;;51.07;47.10;;;20.70;54.80;;;;;;5091481;28;20950;-49
2022/02/08 12:58:35;;;;;;;52.63;48.33;;;20.70;54.70;;;;;;5091342;28;20442;-46
2022/02/08 13:01:33;;;;;;;53.47;49.43;;;20.70;54.60;;;;;;5091425;28;20442;-48
2022/02/08 13:04:17;;;;;;;54.27;50.30;;;20.70;54.50;;;;;;5091350;28;20870;-48
2022/02/08 14:02:11;;;;;;;41.53;38.73;;;20.40;53.80;;;;;;5094642;28;20506;-48
2022/02/08 14:07:34;;;;;;;39.50;36.83;;;20.30;53.80;;;;;;5094250;28;20419;-51
2022/02/08 14:10:16;;;;;;;40.50;38.00;;;20.20;53.70;;;;;;5094336;28;20948;-50
2022/02/08 14:13:20;;;;;;;39.83;37.17;;;20.20;53.90;;;;;;5094124;28;20460;-51
2022/02/08 14:16:01;;;;;;;40.10;37.53;;;20.20;53.80;;;;;;5093731;28;20486;-47
2022/02/08 14:18:51;;;;;;;38.77;36.27;;;20.20;53.80;;;;;;5094019;28;20449;-49
2022/02/08 14:21:25;;;;;;;37.00;34.30;;;20.20;53.90;;;;;;5094043;28;20796;-49
2022/02/08 14:24:01;;;;;;;39.93;37.20;;;20.20;54.00;;;;;;5094004;28;20447;-48
2022/02/08 14:32:14;;;;;;;36.90;34.70;;;20.40;53.90;;;;;;5093600;28;20414;-49
2022/02/08 15:00:14;;;;;;;35.53;33.50;;;20.50;53.20;;;;;;5092763;28;20829;-49
2022/02/08 15:05:33;;;;;;;35.63;33.57;;;20.50;53.70;;;;;;5092680;28;20986;-46
2022/02/08 15:08:10;;;;;;;35.58;33.60;;;20.50;53.90;;;;;;5092849;28;20455;-44
2022/02/08 15:10:42;;;;;;;39.47;37.23;;;20.50;54.30;;;;;;5093240;28;20204;-46
2022/02/08 15:13:12;;;;;;;36.10;34.10;;;20.50;54.50;;;;;;5093112;28;20958;-46
2022/02/08 15:15:58;;;;;;;36.87;34.67;;;20.50;55.00;;;;;;5093950;28;20549;-49
2022/02/08 15:18:28;;;;;;;34.23;32.20;;;20.50;55.10;;;;;;5097957;28;20447;-50
2022/02/08 15:20:55;;;;;;;34.53;32.33;;;20.40;55.30;;;;;;5098364;28;20478;-52
2022/02/08 15:23:22;;;;;;;33.23;31.43;;;20.40;55.50;;;;;;5097790;28;20453;-48
2022/02/08 15:25:51;;;;;;;38.37;36.47;;;20.40;55.70;;;;;;5093181;28;20752;-46
2022/02/08 15:28:19;;;;;;;35.43;33.33;;;20.40;56.00;;;;;;5092726;28;20999;-49
2022/02/08 15:30:46;;;;;;;36.60;34.50;;;20.40;56.10;;;;;;5092955;28;20530;-46
2022/02/08 15:33:13;;;;;;;35.77;33.87;;;20.30;56.20;;;;;;5092705;28;20827;-47
2022/02/08 15:35:39;;;;;;;31.63;29.93;;;20.40;56.40;;;;;;5093223;28;20469;-47
2022/02/08 15:38:06;;;;;;;35.83;33.73;;;20.30;56.40;;;;;;5092940;28;20443;-48
2022/02/08 15:40:33;;;;;;;34.80;32.60;;;20.30;56.40;;;;;;5092761;28;20509;-47
2022/02/08 15:43:00;;;;;;;33.77;32.07;;;20.30;56.50;;;;;;5092835;28;20450;-48
2022/02/08 15:45:32;;;;;;;34.50;32.67;;;20.30;57.00;;;;;;5092270;28;21022;-47
2022/02/08 15:48:00;;;;;;;29.80;28.10;;;20.30;56.60;;;;;;5091158;28;20451;-45
2022/02/08 15:50:34;;;;;;;33.87;32.10;;;20.30;56.70;;;;;;5092457;28;20442;-45
2022/02/08 15:53:23;;;;;;;32.53;30.83;;;20.40;56.60;;;;;;5092472;28;20447;-46
2022/02/08 15:56:06;;;;;;;34.17;32.37;;;20.40;56.50;;;;;;5091745;28;20469;-47
2022/02/08 16:01:28;;;;;;;31.93;30.23;;;20.40;56.70;;;;;;5091251;28;20435;-45
2022/02/08 16:06:56;;;;;;;34.07;32.20;;;20.40;58.10;;;;;;5092361;28;20499;-44
2022/02/08 16:09:29;;;;;;;36.40;34.50;;;20.60;58.20;;;;;;5092192;28;20451;-44
2022/02/08 16:12:11;;;;;;;35.30;33.50;;;20.80;57.70;;;;;;5092515;28;20507;-44
2022/02/08 16:15:03;;;;;;;33.33;31.67;;;20.90;58.10;;;;;;5092504;28;20468;-45
2022/02/08 16:17:38;;;;;;;32.47;30.40;;;21.30;58.40;;;;;;5091265;28;20439;-45
2022/02/08 16:20:17;;;;;;;36.40;34.77;;;21.50;58.10;;;;;;5074374;28;20274;-45
2022/02/08 16:23:19;;;;;;;34.03;32.13;;;21.70;57.10;;;;;;5092285;28;20446;-45
2022/02/08 16:25:56;;;;;;;34.43;32.77;;;21.80;56.70;;;;;;5091666;28;20923;-44
2022/02/08 16:28:40;;;;;;;31.63;29.93;;;21.90;56.40;;;;;;5091931;28;20842;-46
2022/02/08 16:56:09;;;;;;;23.70;22.50;;;23.00;53.70;;;;;;5067550;28;20463;-49
2022/02/08 16:58:45;;;;;;;24.20;22.90;;;23.10;53.50;;;;;;5071322;28;20447;-47
2022/02/08 17:01:15;;;;;;;23.67;22.37;;;23.10;53.20;;;;;;5071264;28;20566;-47
2022/02/08 17:03:45;;;;;;;25.23;23.83;;;23.20;53.10;;;;;;5073890;28;20849;-47
2022/02/08 17:06:16;;;;;;;24.03;22.83;;;23.20;52.90;;;;;;5071117;28;20503;-48